createdAt,value
2022-12-17T00:02:30.785Z,100.00
2022-12-17T00:05:17.625Z,100.00
2022-12-17T00:08:23.531Z,100.00
2022-12-17T00:11:09.620Z,100.00
2022-12-17T00:13:56.351Z,100.00
2022-12-17T00:16:42.923Z,100.00
2022-12-17T00:19:29.690Z,100.00
2022-12-17T00:22:16.342Z,100.00
2022-12-17T00:25:02.718Z,100.00
2022-12-17T00:27:49.371Z,100.00
2022-12-17T00:30:35.637Z,100.00
2022-12-17T00:33:22.282Z,100.00
2022-12-17T00:36:12.090Z,100.00
2022-12-17T00:38:58.622Z,100.00
2022-12-17T00:41:45.989Z,100.00
2022-12-17T00:44:32.597Z,100.00
2022-12-17T00:47:19.680Z,100.00
2022-12-17T00:50:07.912Z,100.00
2022-12-17T00:52:54.039Z,100.00
2022-12-17T00:55:42.623Z,100.00
2022-12-17T00:58:49.417Z,100.00
2022-12-17T01:01:47.075Z,100.00
2022-12-17T01:04:33.849Z,100.00
2022-12-17T01:07:20.631Z,100.00
2022-12-17T01:10:08.448Z,100.00
2022-12-17T01:12:54.977Z,100.00
2022-12-17T01:15:42.533Z,100.00
2022-12-17T01:18:28.850Z,100.00
2022-12-17T01:21:16.244Z,100.00
2022-12-17T01:24:04.654Z,100.00
2022-12-17T01:27:00.151Z,100.00
2022-12-17T01:29:46.175Z,100.00
2022-12-17T01:32:32.694Z,99.90
2022-12-17T01:35:21.039Z,99.96
2022-12-17T01:38:07.935Z,99.33
2022-12-17T01:40:54.276Z,99.34
2022-12-17T01:43:52.336Z,99.29
2022-12-17T01:46:40.033Z,99.60
2022-12-17T01:49:29.408Z,98.93
2022-12-17T01:52:17.075Z,98.73
2022-12-17T01:55:04.337Z,98.81
2022-12-17T01:57:51.548Z,98.16
2022-12-17T02:00:38.841Z,97.99
2022-12-17T02:03:36.488Z,97.83
2022-12-17T02:06:44.194Z,96.75
2022-12-17T02:09:43.500Z,96.25
2022-12-17T02:12:45.734Z,96.10
2022-12-17T02:15:49.430Z,95.82
2022-12-17T02:18:44.345Z,95.77
2022-12-17T02:21:31.682Z,96.59
2022-12-17T02:24:46.626Z,96.31
2022-12-17T02:27:34.455Z,95.28
2022-12-17T02:30:25.086Z,94.11
2022-12-17T02:33:13.408Z,93.52
2022-12-17T02:36:12.413Z,93.39
2022-12-17T02:38:59.125Z,93.78
2022-12-17T02:41:58.339Z,94.03
2022-12-17T02:44:48.588Z,94.08
2022-12-17T02:47:37.415Z,94.19
2022-12-17T02:50:25.458Z,94.40
2022-12-17T02:53:13.235Z,94.80
2022-12-17T02:55:59.902Z,93.84
2022-12-17T03:00:57.268Z,93.43
2022-12-17T03:03:49.938Z,94.19
2022-12-17T03:06:37.109Z,95.15
2022-12-17T03:15:26.407Z,97.11
2022-12-17T03:18:13.434Z,97.44
2022-12-17T03:21:00.178Z,98.09
2022-12-17T03:23:46.694Z,98.44
2022-12-17T03:26:33.015Z,98.50
2022-12-17T03:29:19.726Z,98.87
2022-12-17T03:32:07.089Z,98.67
2022-12-17T03:34:53.361Z,99.07
2022-12-17T03:37:39.583Z,100.00
2022-12-17T03:40:26.086Z,99.92
2022-12-17T03:43:12.249Z,100.00
2022-12-17T03:45:58.913Z,99.77
2022-12-17T03:48:45.031Z,99.89
2022-12-17T03:51:31.609Z,99.04
2022-12-17T03:54:17.834Z,98.59
2022-12-17T03:57:03.994Z,100.00
2022-12-17T03:59:50.292Z,99.55
2022-12-17T04:02:36.759Z,100.00
2022-12-17T04:05:23.561Z,99.81
2022-12-17T04:08:10.728Z,98.43
2022-12-17T04:10:57.529Z,96.95
2022-12-17T04:13:44.317Z,97.34
2022-12-17T04:16:31.103Z,97.54
2022-12-17T04:19:17.800Z,97.85
2022-12-17T04:22:03.897Z,97.73
2022-12-17T04:24:50.339Z,97.30
2022-12-17T04:27:37.031Z,97.06
2022-12-17T04:30:24.035Z,96.71
2022-12-17T04:33:10.898Z,96.65
2022-12-17T04:35:57.526Z,96.02
2022-12-17T04:38:44.086Z,95.92
2022-12-17T04:41:30.421Z,95.32
2022-12-17T04:44:16.893Z,95.02
2022-12-17T04:47:03.409Z,94.36
2022-12-17T04:49:49.705Z,94.59
2022-12-17T04:52:36.050Z,93.83
2022-12-17T04:55:22.688Z,94.04
2022-12-17T04:58:09.150Z,95.00
2022-12-17T05:00:55.377Z,95.99
2022-12-17T05:03:41.950Z,97.92
2022-12-17T05:06:29.196Z,98.24
2022-12-17T05:09:15.928Z,97.65
2022-12-17T05:12:02.494Z,97.46
2022-12-17T05:14:48.874Z,98.91
2022-12-17T05:17:35.528Z,97.95
2022-12-17T05:20:22.015Z,97.35
2022-12-17T05:23:08.717Z,97.83
2022-12-17T05:25:55.281Z,97.59
2022-12-17T05:28:41.593Z,96.18
2022-12-17T05:31:28.314Z,97.00
2022-12-17T05:34:14.844Z,96.60
2022-12-17T05:37:01.071Z,97.46
2022-12-17T05:39:47.810Z,98.02
2022-12-17T05:42:34.371Z,97.79
2022-12-17T05:45:21.165Z,97.88
2022-12-17T05:48:07.602Z,98.26
2022-12-17T05:50:53.857Z,99.05
2022-12-17T05:53:40.218Z,98.19
2022-12-17T05:56:26.593Z,97.43
2022-12-17T05:59:13.175Z,97.19
2022-12-17T06:01:59.726Z,95.30
2022-12-17T06:04:46.487Z,95.23
2022-12-17T06:07:33.100Z,95.54
2022-12-17T06:10:19.416Z,94.84
2022-12-17T06:13:15.872Z,94.20
2022-12-17T06:16:02.209Z,96.11
2022-12-17T06:18:49.131Z,96.31
2022-12-17T06:21:35.720Z,96.87
2022-12-17T06:24:22.646Z,98.05
2022-12-17T06:27:09.928Z,97.83
2022-12-17T06:29:56.864Z,97.58
2022-12-17T06:32:43.306Z,96.92
2022-12-17T06:35:29.588Z,95.85
2022-12-17T06:38:25.571Z,93.81
2022-12-17T06:41:12.230Z,97.43
2022-12-17T06:43:58.411Z,99.98
2022-12-17T06:46:45.204Z,100.00
2022-12-17T06:49:31.712Z,100.00
2022-12-17T06:52:17.944Z,100.00
2022-12-17T06:55:04.313Z,100.00
2022-12-17T06:57:50.812Z,98.82
2022-12-17T07:00:37.153Z,98.99
2022-12-17T07:03:23.973Z,98.33
2022-12-17T07:06:10.603Z,96.22
2022-12-17T07:08:56.876Z,98.60
2022-12-17T07:11:43.869Z,98.20
2022-12-17T07:14:30.588Z,98.28
2022-12-17T07:17:16.783Z,98.87
2022-12-17T07:20:03.008Z,97.95
2022-12-17T07:22:49.575Z,98.25
2022-12-17T07:25:37.253Z,97.37
2022-12-17T07:28:26.096Z,96.69
2022-12-17T07:31:15.209Z,95.53
2022-12-17T07:34:01.816Z,92.85
2022-12-17T07:36:48.409Z,92.44
2022-12-17T07:39:35.100Z,90.85
2022-12-17T07:42:21.781Z,88.49
2022-12-17T07:45:08.400Z,84.83
2022-12-17T07:47:55.043Z,82.41
2022-12-17T07:50:43.230Z,82.26
2022-12-17T07:53:29.790Z,83.13
2022-12-17T07:56:16.923Z,84.83
2022-12-17T07:59:03.248Z,85.08
2022-12-17T08:01:50.068Z,85.50
2022-12-17T08:04:36.430Z,85.28
2022-12-17T08:07:22.732Z,87.24
2022-12-17T08:10:08.965Z,87.55
2022-12-17T08:12:55.647Z,89.64
2022-12-17T08:15:42.429Z,88.19
2022-12-17T08:18:29.545Z,89.56
2022-12-17T08:21:16.208Z,90.06
2022-12-17T08:24:02.961Z,90.39
2022-12-17T08:26:49.528Z,90.45
2022-12-17T08:29:36.037Z,92.22
2022-12-17T08:32:23.262Z,92.35
2022-12-17T08:35:09.988Z,90.35
2022-12-17T08:37:56.693Z,85.42
2022-12-17T08:40:43.351Z,83.71
2022-12-17T08:43:29.759Z,81.42
2022-12-17T08:46:16.951Z,80.49
2022-12-17T08:49:03.763Z,80.28
2022-12-17T08:51:50.481Z,78.84
2022-12-17T08:54:36.783Z,78.19
2022-12-17T08:57:31.482Z,75.55
2022-12-17T09:00:18.896Z,72.75
2022-12-17T09:03:05.607Z,70.64
2022-12-17T09:05:52.227Z,66.52
2022-12-17T09:08:38.965Z,61.81
2022-12-17T09:11:25.859Z,59.61
2022-12-17T09:14:13.581Z,58.66
2022-12-17T09:23:05.240Z,59.04
2022-12-17T09:25:56.570Z,58.56
2022-12-17T09:28:45.168Z,61.18
2022-12-17T09:31:37.001Z,63.72
2022-12-17T09:34:24.470Z,65.83
2022-12-17T09:37:11.201Z,64.82
2022-12-17T09:39:57.881Z,60.47
2022-12-17T09:43:22.015Z,56.74
2022-12-17T09:46:28.084Z,58.34
2022-12-17T09:49:45.843Z,60.38
2022-12-17T09:52:55.830Z,59.50
2022-12-17T09:56:07.480Z,60.17
2022-12-17T09:58:57.235Z,59.75
2022-12-17T10:01:46.955Z,57.33
2022-12-17T10:04:56.307Z,57.04
2022-12-17T10:07:47.295Z,58.84
2022-12-17T10:10:42.961Z,62.46
2022-12-17T10:13:34.988Z,66.76
2022-12-17T10:16:35.553Z,69.24
2022-12-17T10:19:22.536Z,71.39
2022-12-17T10:22:09.218Z,73.20
2022-12-17T10:25:04.829Z,73.54
2022-12-17T10:27:50.981Z,74.33
2022-12-17T10:30:38.139Z,75.83
2022-12-17T10:33:26.784Z,79.70
2022-12-17T10:36:13.199Z,79.86
2022-12-17T10:39:00.015Z,80.35
2022-12-17T10:41:49.674Z,80.66
2022-12-17T10:44:53.712Z,82.88
2022-12-17T10:47:45.170Z,84.18
2022-12-17T10:50:45.132Z,85.17
2022-12-17T10:53:43.986Z,84.92
2022-12-17T10:56:45.491Z,86.77
2022-12-17T10:59:44.897Z,87.49
2022-12-17T11:02:39.604Z,88.10
2022-12-17T11:05:45.357Z,88.04
2022-12-17T11:08:35.653Z,87.08
2022-12-17T11:11:25.464Z,89.24
2022-12-17T11:14:13.123Z,77.60
2022-12-17T11:17:06.882Z,68.38
2022-12-17T11:20:03.063Z,64.41
2022-12-17T11:23:08.902Z,62.15
2022-12-17T11:26:01.072Z,61.48
2022-12-17T11:28:52.467Z,62.74
2022-12-17T11:31:50.452Z,62.86
2022-12-17T11:35:08.881Z,60.98
2022-12-17T11:38:23.418Z,61.16
2022-12-17T11:41:16.773Z,65.74
2022-12-17T11:44:35.690Z,65.41
2022-12-17T11:47:37.966Z,66.66
2022-12-17T11:50:44.737Z,66.70
2022-12-17T11:53:46.383Z,63.47
2022-12-17T11:56:33.162Z,59.31
2022-12-17T11:59:52.669Z,59.05
2022-12-17T12:02:49.572Z,63.35
2022-12-17T12:05:57.255Z,69.11
2022-12-17T12:08:48.071Z,71.49
2022-12-17T12:11:46.566Z,74.68
2022-12-17T12:14:54.360Z,74.80
2022-12-17T12:18:23.768Z,75.79
2022-12-17T12:21:10.961Z,76.15
2022-12-17T12:24:03.586Z,76.61
2022-12-17T12:27:10.161Z,82.43
2022-12-17T12:30:24.985Z,83.19
2022-12-17T12:33:20.981Z,86.47
2022-12-17T12:36:09.661Z,88.47
2022-12-17T12:39:01.938Z,90.54
2022-12-17T12:42:16.496Z,88.41
2022-12-17T12:45:10.455Z,87.05
2022-12-17T12:48:10.954Z,86.56
2022-12-17T12:51:23.827Z,85.40
2022-12-17T12:54:19.503Z,85.92
2022-12-17T12:57:08.716Z,86.87
2022-12-17T12:59:56.241Z,87.12
2022-12-17T13:02:49.776Z,87.53
2022-12-17T13:05:40.114Z,87.76
2022-12-17T13:08:08.618Z,87.17
2022-12-17T13:10:37.902Z,86.70
2022-12-17T13:13:20.322Z,86.17
2022-12-17T13:15:54.696Z,86.14
2022-12-17T13:18:34.854Z,87.90
2022-12-17T13:21:16.288Z,87.91
2022-12-17T13:23:44.792Z,87.46
2022-12-17T13:26:36.092Z,86.96
2022-12-17T13:29:20.362Z,86.33
2022-12-17T13:32:05.515Z,86.03
2022-12-17T13:35:24.210Z,87.37
2022-12-17T13:38:20.345Z,88.74
2022-12-17T13:41:10.460Z,87.97
2022-12-17T13:43:49.629Z,87.86
2022-12-17T13:46:29.508Z,89.17
2022-12-17T13:49:00.261Z,88.27
2022-12-17T13:51:31.044Z,87.89
2022-12-17T13:54:01.907Z,88.01
2022-12-17T13:56:37.810Z,87.51
2022-12-17T13:59:09.621Z,88.65
2022-12-17T14:01:49.846Z,90.23
2022-12-17T14:04:26.325Z,90.26
2022-12-17T14:06:59.442Z,90.84
2022-12-17T14:09:36.056Z,91.64
2022-12-17T14:12:25.421Z,91.16
2022-12-17T14:15:01.594Z,91.62
2022-12-17T14:17:50.080Z,92.39
2022-12-17T14:20:25.693Z,92.03
2022-12-17T14:23:02.401Z,91.91
2022-12-17T14:25:35.718Z,91.68
2022-12-17T14:28:25.256Z,92.59
2022-12-17T14:34:08.598Z,91.82
2022-12-17T14:36:40.047Z,91.49
2022-12-17T14:39:26.640Z,90.76
2022-12-17T14:42:16.989Z,91.00
2022-12-17T14:44:52.855Z,91.48
2022-12-17T14:47:32.945Z,91.23
2022-12-17T14:50:26.429Z,91.31
2022-12-17T14:52:57.703Z,91.34
2022-12-17T14:55:33.329Z,90.95
2022-12-17T14:58:13.457Z,90.97
2022-12-17T15:00:51.115Z,92.21
2022-12-17T15:03:19.703Z,92.69
2022-12-17T15:05:53.244Z,91.96
2022-12-17T15:08:22.397Z,91.68
2022-12-17T15:10:50.970Z,91.38
2022-12-17T15:13:19.406Z,91.05
2022-12-17T15:15:47.693Z,90.37
2022-12-17T15:18:15.713Z,91.29
2022-12-17T15:20:44.153Z,92.49
2022-12-17T15:23:18.917Z,93.54
2022-12-17T15:36:41.224Z,95.10
2022-12-17T15:39:09.756Z,94.29
2022-12-17T15:41:56.838Z,93.46
2022-12-17T15:44:25.150Z,93.46
2022-12-17T15:46:53.445Z,93.57
2022-12-17T15:49:24.719Z,96.74
2022-12-17T15:51:53.287Z,98.00
2022-12-17T15:54:21.714Z,96.89
2022-12-17T15:56:57.070Z,96.64
2022-12-17T15:59:25.483Z,96.15
2022-12-17T16:01:54.211Z,95.78
2022-12-17T16:04:25.249Z,96.88
2022-12-17T16:06:54.109Z,96.36
2022-12-17T16:09:27.362Z,96.62
2022-12-17T16:11:57.141Z,96.63
2022-12-17T16:14:25.924Z,98.44
2022-12-17T16:16:54.320Z,98.00
2022-12-17T16:19:22.671Z,88.96
2022-12-17T16:21:51.056Z,88.81
2022-12-17T16:24:19.753Z,90.35
2022-12-17T16:26:48.102Z,91.35
2022-12-17T16:29:16.597Z,91.25
2022-12-17T16:31:46.581Z,91.00
2022-12-17T16:34:15.252Z,91.59
2022-12-17T16:36:43.660Z,91.23
2022-12-17T16:39:17.944Z,90.79
2022-12-17T16:41:47.257Z,91.07
2022-12-17T16:44:16.015Z,90.69
2022-12-17T16:46:46.801Z,90.01
2022-12-17T16:49:24.953Z,90.37
2022-12-17T16:51:54.812Z,90.55
2022-12-17T16:54:26.566Z,91.07
2022-12-17T16:56:55.365Z,91.00
2022-12-17T16:59:24.162Z,90.75
2022-12-17T17:01:53.806Z,90.72
2022-12-17T17:04:23.638Z,91.41
2022-12-17T17:06:57.196Z,92.04
2022-12-17T17:09:26.614Z,91.10
2022-12-17T17:11:57.342Z,90.69
2022-12-17T17:14:26.912Z,91.17
2022-12-17T17:16:55.429Z,91.37
2022-12-17T17:19:24.024Z,91.10
2022-12-17T17:21:54.936Z,91.32
2022-12-17T17:24:26.195Z,90.57
2022-12-17T17:26:55.911Z,90.26
2022-12-17T17:29:25.797Z,90.28
2022-12-17T17:32:10.334Z,90.23
2022-12-17T17:34:40.787Z,90.05
2022-12-17T17:37:09.212Z,90.70
2022-12-17T17:39:37.763Z,91.21
2022-12-17T17:42:08.452Z,91.18
2022-12-17T17:44:37.682Z,90.47
2022-12-17T17:47:08.134Z,89.36
2022-12-17T17:49:36.853Z,89.54
2022-12-17T17:52:10.225Z,89.42
2022-12-17T17:54:40.104Z,89.00
2022-12-17T17:57:09.853Z,88.42
2022-12-17T17:59:39.897Z,88.80
2022-12-17T18:02:11.529Z,88.89
2022-12-17T18:04:40.378Z,89.11
2022-12-17T18:07:26.083Z,89.85
2022-12-17T18:09:56.284Z,90.33
2022-12-17T18:12:43.214Z,90.35
2022-12-17T18:15:16.924Z,90.37
2022-12-17T18:17:47.730Z,89.72
2022-12-17T18:20:16.807Z,90.46
2022-12-17T18:22:46.808Z,89.91
2022-12-17T18:25:16.950Z,89.83
2022-12-17T18:27:45.515Z,90.99
2022-12-17T18:30:16.663Z,91.36
2022-12-17T18:32:47.475Z,91.62
2022-12-17T18:35:16.246Z,92.17
2022-12-17T18:37:44.541Z,91.56
2022-12-17T18:40:13.146Z,91.86
2022-12-17T18:43:00.027Z,91.87
2022-12-17T18:45:28.718Z,90.33
2022-12-17T18:47:57.185Z,90.13
2022-12-17T18:50:26.134Z,90.14
2022-12-17T18:52:54.411Z,90.26
2022-12-17T18:55:22.930Z,89.71
2022-12-17T18:57:51.457Z,89.66
2022-12-17T19:00:19.685Z,90.08
2022-12-17T19:02:48.415Z,90.33
2022-12-17T19:05:17.154Z,90.16
2022-12-17T19:07:45.700Z,89.49
2022-12-17T19:10:14.267Z,88.69
2022-12-17T19:12:42.599Z,88.69
2022-12-17T19:15:11.155Z,88.75
2022-12-17T19:17:39.721Z,88.56
2022-12-17T19:20:09.034Z,89.31
2022-12-17T19:22:37.475Z,90.17
2022-12-17T19:25:06.265Z,89.46
2022-12-17T19:27:34.574Z,89.16
2022-12-17T19:30:03.150Z,89.29
2022-12-17T19:32:32.073Z,89.55
2022-12-17T19:35:00.604Z,88.96
2022-12-17T19:37:29.014Z,88.61
2022-12-17T19:39:57.769Z,87.71
2022-12-17T19:42:27.599Z,87.56
2022-12-17T19:44:59.411Z,87.90
2022-12-17T19:47:30.882Z,88.59
2022-12-17T19:49:59.408Z,87.52
2022-12-17T19:52:27.641Z,86.81
2022-12-17T19:54:56.237Z,86.79
2022-12-17T19:57:24.649Z,86.79
2022-12-17T19:59:52.648Z,87.45
2022-12-17T20:02:21.129Z,87.53
2022-12-17T20:04:49.736Z,88.73
2022-12-17T20:07:18.602Z,88.92
2022-12-17T20:09:46.898Z,89.05
2022-12-17T20:12:15.439Z,88.80
2022-12-17T20:14:43.796Z,88.23
2022-12-17T20:17:12.521Z,87.81
2022-12-17T20:19:40.976Z,87.81
2022-12-17T20:22:10.800Z,87.56
2022-12-17T20:24:39.911Z,87.66
2022-12-17T20:27:08.486Z,87.52
2022-12-17T20:29:37.088Z,87.87
2022-12-17T20:32:05.696Z,88.11
2022-12-17T20:34:36.391Z,88.52
2022-12-17T20:37:04.340Z,88.31
2022-12-17T20:39:32.648Z,87.97
2022-12-17T20:42:00.672Z,87.94
2022-12-17T20:44:29.093Z,87.50
2022-12-17T20:47:00.499Z,86.80
2022-12-17T20:49:28.556Z,87.22
2022-12-17T20:51:59.630Z,88.13
2022-12-17T20:54:27.843Z,88.68
2022-12-17T20:56:57.682Z,90.15
2022-12-17T20:59:25.811Z,90.74
2022-12-17T21:01:56.355Z,90.40
2022-12-17T21:04:25.148Z,90.55
2022-12-17T21:06:54.022Z,90.55
2022-12-17T21:09:25.760Z,91.16
2022-12-17T21:11:54.142Z,91.21
2022-12-17T21:14:22.043Z,91.58
2022-12-17T21:16:50.301Z,92.42
2022-12-17T21:19:20.270Z,92.67
2022-12-17T21:21:48.771Z,93.99
2022-12-17T21:24:16.688Z,93.79
2022-12-17T21:26:47.213Z,94.13
2022-12-17T21:29:16.445Z,93.96
2022-12-17T21:31:47.591Z,94.22
2022-12-17T21:34:34.991Z,94.72
2022-12-17T21:45:40.894Z,94.61
2022-12-17T21:50:54.291Z,93.65
2022-12-17T21:53:23.784Z,93.50
2022-12-17T21:55:54.958Z,93.28
2022-12-17T21:58:24.014Z,93.10
2022-12-17T22:00:54.792Z,92.93
2022-12-17T22:03:22.986Z,92.40
2022-12-17T22:05:51.202Z,92.00
2022-12-17T22:08:19.572Z,92.36
2022-12-17T22:10:51.660Z,93.00
2022-12-17T22:13:38.536Z,92.28
2022-12-17T22:16:07.710Z,92.47
2022-12-17T22:18:35.932Z,92.36
2022-12-17T22:21:04.760Z,92.79
2022-12-17T22:23:33.211Z,92.77
2022-12-17T22:26:01.463Z,92.92
2022-12-17T22:28:29.366Z,92.89
2022-12-17T22:31:16.004Z,93.00
2022-12-17T22:34:30.853Z,92.34
2022-12-17T22:38:53.437Z,92.35
2022-12-17T22:43:45.209Z,91.53
2022-12-17T22:44:49.499Z,91.43
2022-12-17T22:45:22.782Z,91.62
2022-12-17T22:47:51.566Z,91.29
2022-12-17T22:50:25.970Z,90.61
2022-12-17T22:52:56.721Z,90.94
2022-12-17T22:55:25.216Z,90.80
2022-12-17T22:57:55.148Z,90.75
2022-12-17T23:00:27.168Z,89.89
2022-12-17T23:02:56.264Z,90.45
2022-12-17T23:05:25.595Z,90.19
2022-12-17T23:07:53.845Z,89.91
2022-12-17T23:10:22.952Z,89.51
2022-12-17T23:12:51.431Z,88.66
2022-12-17T23:15:26.439Z,88.65
2022-12-17T23:17:56.684Z,88.58
2022-12-17T23:20:26.316Z,88.18
2022-12-17T23:22:54.547Z,88.24
2022-12-17T23:25:23.386Z,88.49
2022-12-17T23:27:51.769Z,89.18
2022-12-17T23:30:20.134Z,88.59
2022-12-17T23:32:49.149Z,89.13
2022-12-17T23:35:17.564Z,89.19
2022-12-17T23:37:45.561Z,89.10
2022-12-17T23:40:13.849Z,88.99
2022-12-17T23:42:41.920Z,89.19
2022-12-17T23:45:11.788Z,89.13
2022-12-17T23:47:41.563Z,88.95
2022-12-17T23:50:11.311Z,88.94
2022-12-17T23:52:39.639Z,88.79
2022-12-17T23:55:08.196Z,89.04
2022-12-17T23:57:36.279Z,88.53
